Ville De Bordeaux — FZCE — position and weather

sailwx.info

Track history (hours):
 
Tides and Currents Weather Stations Pressure Air Temp Water Temp Dewpoint Dewpoint Depression Visibility Wind Speed Wind Dir Waves Ship Positions

Ville De Bordeaux

Last reported at 2016-Sep-27 23:33 UTC. Time now 2016-Sep-28 12:02 UTC.
Position N 42°27' W 009°50'.

Length 150 m; beam 24 m.

Type: Ship. MMSI: 228084000.

Date/timePositionNaut miles runAvg speedWind from/ knotsBaromVisibWave heightAir tempDewpointWater temp
2016-Sep-27 23:33N 42°27' W 009°50'22517.3
2016-Sep-27 10:33N 38°41' W 009°51'14114.1
2016-Sep-27 00:30N 36°40' W 008°18'  
2016-Sep-19 19:32N 35°54' W 005°33'0 0.1
2016-Sep-19 13:05N 35°54' W 005°33'11411.7
2016-Sep-19 03:23N 36°15' W 007°52'1416.4
2016-Sep-19 02:33N 36°19' W 008°08'3416.9
2016-Sep-19 00:32N 36°26' W 008°49'7615.2
2016-Sep-18 19:33N 37°28' W 009°46'6917.4
2016-Sep-18 15:34N 38°35' W 010°05'1717.3
2016-Sep-18 14:33N 38°53' W 010°07'7617.6
2016-Sep-18 10:12N 40°09' W 010°07'  
Track history (hours):
 
Tides and Currents Weather Stations Pressure Air Temp Water Temp Dewpoint Dewpoint Depression Visibility Wind Speed Wind Dir Waves Ship Positions

Ville De Bordeaux

Last reported at 2016-Sep-27 23:33 UTC. Time now 2016-Sep-28 12:02 UTC.
Position N 42°27' W 009°50'.

Length 150 m; beam 24 m.

Type: Ship. MMSI: 228084000.

Date/timePositionNaut miles runAvg speedWind from/ knotsBaromVisibWave heightAir tempDewpointWater temp
2016-Sep-27 23:33N 42°27' W 009°50'22517.3
2016-Sep-27 10:33N 38°41' W 009°51'14114.1
2016-Sep-27 00:30N 36°40' W 008°18'  
2016-Sep-19 19:32N 35°54' W 005°33'0 0.1
2016-Sep-19 13:05N 35°54' W 005°33'11411.7
2016-Sep-19 03:23N 36°15' W 007°52'1416.4
2016-Sep-19 02:33N 36°19' W 008°08'3416.9
2016-Sep-19 00:32N 36°26' W 008°49'7615.2
2016-Sep-18 19:33N 37°28' W 009°46'6917.4
2016-Sep-18 15:34N 38°35' W 010°05'1717.3
2016-Sep-18 14:33N 38°53' W 010°07'7617.6
2016-Sep-18 10:12N 40°09' W 010°07'  

Dump ship's entire track history